createdAt,value
2018-08-17T00:00:16.972Z,90.80
2018-08-17T00:01:16.971Z,90.52
2018-08-17T00:02:16.964Z,90.46
2018-08-17T00:03:16.960Z,90.08
2018-08-17T00:04:16.956Z,90.22
2018-08-17T00:05:16.988Z,90.27
2018-08-17T00:06:16.948Z,90.42
2018-08-17T00:07:16.943Z,90.75
2018-08-17T00:08:16.940Z,89.89
2018-08-17T00:09:16.936Z,89.79
2018-08-17T00:10:16.934Z,89.69
2018-08-17T00:11:16.930Z,89.60
2018-08-17T00:12:16.924Z,89.02
2018-08-17T00:13:16.920Z,89.50
2018-08-17T00:14:16.916Z,89.89
2018-08-17T00:15:16.911Z,89.94
2018-08-17T00:16:16.908Z,89.50
2018-08-17T00:17:16.905Z,89.79
2018-08-17T00:18:16.900Z,90.42
2018-08-17T00:19:16.896Z,90.03
2018-08-17T00:20:16.892Z,89.84
2018-08-17T00:21:16.888Z,89.94
2018-08-17T00:22:16.885Z,89.94
2018-08-17T00:23:16.879Z,89.75
2018-08-17T00:24:16.878Z,90.22
2018-08-17T00:25:16.873Z,91.38
2018-08-17T00:26:16.868Z,91.09
2018-08-17T00:27:16.864Z,91.66
2018-08-17T00:28:16.859Z,91.38
2018-08-17T00:29:16.858Z,91.38
2018-08-17T00:30:16.854Z,90.84
2018-08-17T00:31:16.846Z,90.84
2018-08-17T00:32:16.842Z,90.17
2018-08-17T00:33:16.838Z,89.98
2018-08-17T00:34:16.833Z,89.50
2018-08-17T00:35:16.829Z,90.08
2018-08-17T00:36:16.824Z,90.08
2018-08-17T00:37:16.820Z,89.98
2018-08-17T00:38:16.823Z,90.08
2018-08-17T00:39:16.810Z,90.46
2018-08-17T00:40:16.806Z,90.27
2018-08-17T00:41:16.801Z,90.46
2018-08-17T00:42:16.797Z,91.04
2018-08-17T00:43:16.792Z,91.52
2018-08-17T00:44:16.787Z,92.29
2018-08-17T00:45:16.783Z,92.00
2018-08-17T00:46:16.779Z,92.48
2018-08-17T00:47:16.773Z,92.38
2018-08-17T00:48:16.769Z,93.05
2018-08-17T00:49:16.764Z,93.05
2018-08-17T00:50:16.760Z,93.63
2018-08-17T00:51:16.754Z,93.05
2018-08-17T00:52:16.750Z,93.63
2018-08-17T00:53:16.745Z,93.44
2018-08-17T00:54:16.740Z,94.11
2018-08-17T00:55:16.735Z,94.01
2018-08-17T00:56:16.730Z,94.01
2018-08-17T00:57:16.725Z,93.73
2018-08-17T00:58:16.723Z,93.82
2018-08-17T00:59:16.715Z,94.01
2018-08-17T01:00:16.711Z,94.40
2018-08-17T01:01:16.706Z,94.21
2018-08-17T01:02:16.705Z,94.40
2018-08-17T01:03:16.696Z,94.11
2018-08-17T01:04:16.691Z,94.59
2018-08-17T01:05:16.687Z,93.73
2018-08-17T01:06:16.682Z,94.40
2018-08-17T01:07:16.679Z,94.11
2018-08-17T01:08:16.673Z,95.07
2018-08-17T01:09:16.669Z,94.98
2018-08-17T01:10:16.667Z,94.98
2018-08-17T01:11:16.658Z,94.59
2018-08-17T01:12:16.654Z,94.59
2018-08-17T01:13:16.650Z,94.98
2018-08-17T01:14:16.645Z,94.88
2018-08-17T01:15:16.640Z,95.07
2018-08-17T01:16:16.935Z,94.88
2018-08-17T01:17:16.630Z,94.40
2018-08-17T01:18:16.626Z,94.59
2018-08-17T01:19:16.620Z,94.11
2018-08-17T01:20:16.619Z,94.88
2018-08-17T01:21:16.614Z,94.88
2018-08-17T01:22:16.607Z,95.17
2018-08-17T01:23:16.601Z,95.36
2018-08-17T01:24:16.597Z,95.98
2018-08-17T01:25:16.592Z,95.84
2018-08-17T01:26:16.588Z,95.89
2018-08-17T01:27:16.582Z,95.79
2018-08-17T01:28:16.578Z,96.47
2018-08-17T01:29:16.573Z,95.79
2018-08-17T01:30:16.568Z,96.94
2018-08-17T01:31:16.563Z,97.04
2018-08-17T01:32:16.558Z,96.66
2018-08-17T01:33:16.554Z,96.94
2018-08-17T01:34:16.549Z,96.85
2018-08-17T01:35:16.543Z,96.75
2018-08-17T01:36:16.539Z,96.56
2018-08-17T01:37:16.534Z,96.66
2018-08-17T01:38:16.529Z,96.75
2018-08-17T01:39:16.524Z,96.66
2018-08-17T01:40:16.519Z,96.75
2018-08-17T01:41:16.515Z,96.66
2018-08-17T01:42:16.515Z,96.56
2018-08-17T01:43:16.504Z,95.98
2018-08-17T01:44:16.500Z,96.18
2018-08-17T01:45:16.496Z,96.27
2018-08-17T01:46:16.491Z,95.70
2018-08-17T01:47:16.486Z,95.70
2018-08-17T01:48:16.521Z,96.03
2018-08-17T01:49:16.476Z,95.21
2018-08-17T01:50:16.472Z,95.03
2018-08-17T01:51:16.466Z,95.12
2018-08-17T01:52:16.462Z,95.50
2018-08-17T01:53:16.457Z,94.83
2018-08-17T01:54:16.453Z,95.03
2018-08-17T01:55:16.449Z,94.93
2018-08-17T01:56:16.443Z,94.35
2018-08-17T01:57:16.438Z,94.45
2018-08-17T01:58:16.437Z,94.93
2018-08-17T01:59:16.431Z,94.16
2018-08-17T02:00:16.424Z,94.54
2018-08-17T02:01:16.419Z,94.07
2018-08-17T02:02:16.416Z,94.26
2018-08-17T02:03:16.409Z,94.35
2018-08-17T02:04:16.406Z,94.45
2018-08-17T02:05:16.400Z,94.35
2018-08-17T02:06:16.395Z,94.07
2018-08-17T02:07:16.390Z,93.97
2018-08-17T02:08:16.384Z,93.68
2018-08-17T02:09:16.380Z,93.77
2018-08-17T02:10:16.375Z,93.87
2018-08-17T02:11:16.370Z,93.68
2018-08-17T02:12:16.365Z,94.16
2018-08-17T02:13:16.360Z,94.45
2018-08-17T02:14:16.358Z,94.07
2018-08-17T02:15:16.350Z,94.35
2018-08-17T02:16:16.352Z,94.07
2018-08-17T02:17:16.341Z,94.07
2018-08-17T02:18:16.336Z,94.35
2018-08-17T02:19:16.330Z,94.54
2018-08-17T02:20:16.326Z,94.35
2018-08-17T02:21:16.323Z,94.35
2018-08-17T02:22:16.316Z,94.35
2018-08-17T02:23:16.311Z,94.16
2018-08-17T02:24:16.340Z,94.45
2018-08-17T02:25:16.301Z,94.35
2018-08-17T02:26:16.297Z,94.16
2018-08-17T02:27:16.291Z,94.93
2018-08-17T02:28:16.286Z,94.83
2018-08-17T02:29:16.282Z,94.74
2018-08-17T02:30:16.279Z,94.83
2018-08-17T02:31:16.272Z,95.21
2018-08-17T02:32:16.273Z,95.79
2018-08-17T02:33:16.264Z,96.66
2018-08-17T02:34:16.259Z,97.04
2018-08-17T02:35:16.254Z,96.89
2018-08-17T02:36:16.249Z,97.47
2018-08-17T02:37:16.245Z,96.89
2018-08-17T02:38:16.243Z,97.56
2018-08-17T02:39:16.233Z,98.43
2018-08-17T02:40:16.229Z,97.95
2018-08-17T02:41:16.226Z,98.82
2018-08-17T02:42:16.225Z,99.39
2018-08-17T02:43:16.213Z,99.39
2018-08-17T02:44:16.209Z,99.99
2018-08-17T02:45:16.205Z,99.99
2018-08-17T02:46:16.200Z,99.99
2018-08-17T02:47:16.194Z,99.99
2018-08-17T02:48:16.189Z,99.99
2018-08-17T02:49:16.183Z,99.99
2018-08-17T02:50:16.180Z,99.99
2018-08-17T02:51:16.173Z,99.99
2018-08-17T02:52:16.167Z,99.99
2018-08-17T02:53:16.162Z,99.99
2018-08-17T02:54:16.157Z,99.99
2018-08-17T02:55:16.155Z,99.99
2018-08-17T02:56:16.146Z,99.99
2018-08-17T02:57:16.142Z,99.99
2018-08-17T02:58:16.136Z,99.99
2018-08-17T02:59:16.129Z,99.99
2018-08-17T03:00:16.125Z,99.99
2018-08-17T03:01:16.122Z,99.99
2018-08-17T03:02:16.115Z,99.99
2018-08-17T03:03:16.109Z,99.99
2018-08-17T03:04:16.107Z,99.99
2018-08-17T03:05:16.098Z,99.99
2018-08-17T03:06:16.093Z,99.99
2018-08-17T03:07:16.088Z,99.99
2018-08-17T03:08:16.087Z,99.99
2018-08-17T03:09:16.077Z,99.99
2018-08-17T03:10:16.073Z,99.99
2018-08-17T03:11:16.066Z,99.99
2018-08-17T03:12:16.061Z,99.99
2018-08-17T03:13:16.058Z,99.99
2018-08-17T03:14:16.052Z,99.99
2018-08-17T03:15:16.047Z,99.99
2018-08-17T03:16:16.041Z,99.99
2018-08-17T03:17:16.037Z,99.99
2018-08-17T03:18:16.033Z,99.99
2018-08-17T03:19:16.026Z,99.99
2018-08-17T03:20:16.022Z,99.99
2018-08-17T03:21:16.017Z,99.99
2018-08-17T03:22:16.012Z,99.99
2018-08-17T03:23:16.009Z,99.99
2018-08-17T03:24:16.002Z,99.99
2018-08-17T03:25:16.002Z,99.99
2018-08-17T03:26:15.993Z,99.99
2018-08-17T03:27:15.987Z,99.99
2018-08-17T03:28:15.986Z,99.99
2018-08-17T03:29:15.978Z,99.99
2018-08-17T03:30:15.973Z,99.99
2018-08-17T03:31:15.968Z,99.99
2018-08-17T03:32:15.963Z,99.99
2018-08-17T03:33:15.959Z,99.99
2018-08-17T03:34:15.954Z,99.99
2018-08-17T03:35:15.949Z,99.99
2018-08-17T03:36:15.944Z,99.99
2018-08-17T03:37:16.054Z,99.99
2018-08-17T03:38:16.058Z,99.99
2018-08-17T03:39:15.929Z,99.99
2018-08-17T03:40:15.926Z,99.99
2018-08-17T03:41:15.920Z,99.99
2018-08-17T03:42:15.915Z,99.99
2018-08-17T03:43:15.910Z,99.99
2018-08-17T03:44:15.906Z,99.99
2018-08-17T03:45:15.901Z,99.99
2018-08-17T03:46:15.897Z,99.99
2018-08-17T03:47:15.895Z,99.99
2018-08-17T03:48:15.888Z,99.99
2018-08-17T03:49:15.882Z,99.99
2018-08-17T03:50:15.881Z,99.99
2018-08-17T03:51:15.871Z,99.99
2018-08-17T03:52:15.867Z,99.99
2018-08-17T03:53:15.863Z,99.99
2018-08-17T03:54:15.858Z,99.99
2018-08-17T03:55:15.853Z,99.99
2018-08-17T03:56:15.851Z,99.99
2018-08-17T03:57:15.846Z,99.99
2018-08-17T03:58:15.839Z,99.99
2018-08-17T03:59:15.836Z,99.99
2018-08-17T04:00:15.830Z,99.99
2018-08-17T04:01:15.828Z,99.99
2018-08-17T04:02:15.821Z,99.99
2018-08-17T04:03:15.815Z,99.99
2018-08-17T04:04:15.811Z,99.99
2018-08-17T04:05:15.806Z,99.99
2018-08-17T04:06:15.802Z,99.99
2018-08-17T04:07:15.797Z,99.99
2018-08-17T04:08:15.792Z,99.99
2018-08-17T04:09:15.788Z,99.99
2018-08-17T04:10:15.784Z,99.99
2018-08-17T04:11:15.778Z,99.99
2018-08-17T04:12:15.775Z,99.99
2018-08-17T04:13:15.770Z,99.99
2018-08-17T04:14:15.764Z,99.99
2018-08-17T04:15:15.760Z,99.99
2018-08-17T04:16:15.755Z,99.99
2018-08-17T04:17:15.751Z,99.99
2018-08-17T04:18:15.746Z,99.99
2018-08-17T04:19:15.739Z,99.99
2018-08-17T04:20:15.734Z,99.99
2018-08-17T04:21:15.729Z,99.99
2018-08-17T04:22:15.724Z,99.99
2018-08-17T04:23:15.717Z,99.99
2018-08-17T04:24:15.713Z,99.99
2018-08-17T04:25:15.709Z,99.99
2018-08-17T04:26:15.701Z,99.99
2018-08-17T04:27:15.702Z,99.99
2018-08-17T04:28:15.690Z,99.99
2018-08-17T04:29:15.684Z,99.99
2018-08-17T04:30:15.678Z,99.99
2018-08-17T04:31:15.671Z,99.99
2018-08-17T04:32:15.666Z,99.99
2018-08-17T04:33:15.659Z,99.99
2018-08-17T04:34:15.654Z,99.99
2018-08-17T04:35:15.667Z,99.99
2018-08-17T04:36:15.641Z,99.99
2018-08-17T04:37:15.636Z,99.99
2018-08-17T04:38:15.630Z,99.99
2018-08-17T04:39:15.627Z,99.99
2018-08-17T04:40:15.617Z,99.99
2018-08-17T04:41:15.611Z,99.99
2018-08-17T04:42:15.606Z,99.99
2018-08-17T04:43:15.600Z,99.99
2018-08-17T04:44:15.594Z,99.99
2018-08-17T04:45:15.588Z,99.99
2018-08-17T04:46:15.883Z,99.99
2018-08-17T04:47:15.575Z,99.99
2018-08-17T04:48:15.571Z,99.99
2018-08-17T04:49:15.570Z,99.99
2018-08-17T04:50:15.559Z,99.99
2018-08-17T04:51:15.553Z,99.99
2018-08-17T04:52:15.547Z,99.99
2018-08-17T04:53:15.542Z,99.99
2018-08-17T04:54:15.536Z,99.99
2018-08-17T04:55:15.530Z,99.99
2018-08-17T04:56:15.523Z,99.99
2018-08-17T04:57:15.517Z,99.99
2018-08-17T04:58:15.512Z,99.99
2018-08-17T04:59:15.509Z,99.99
2018-08-17T05:00:15.499Z,99.99
2018-08-17T05:01:15.495Z,99.99
2018-08-17T05:02:15.491Z,99.99
2018-08-17T05:03:15.499Z,99.99
2018-08-17T05:04:15.474Z,99.99
2018-08-17T05:05:15.467Z,99.99
2018-08-17T05:06:15.461Z,99.99
2018-08-17T05:07:15.458Z,99.99
2018-08-17T05:08:15.452Z,99.99
2018-08-17T05:09:15.442Z,99.99
2018-08-17T05:10:15.436Z,99.99
2018-08-17T05:11:15.429Z,99.99
2018-08-17T05:12:15.423Z,99.99
2018-08-17T05:13:15.416Z,99.99
2018-08-17T05:14:15.410Z,99.99
2018-08-17T05:15:15.407Z,99.99
2018-08-17T05:16:15.397Z,99.99
2018-08-17T05:17:15.391Z,99.99
2018-08-17T05:18:15.387Z,99.99
2018-08-17T05:19:15.379Z,99.99
2018-08-17T05:20:15.371Z,99.99
2018-08-17T05:21:15.365Z,99.99
2018-08-17T05:22:15.361Z,99.99
2018-08-17T05:23:15.357Z,99.99
2018-08-17T05:24:15.346Z,99.99
2018-08-17T05:25:15.339Z,99.99
2018-08-17T05:26:15.333Z,99.99
2018-08-17T05:27:15.326Z,99.99
2018-08-17T05:28:15.319Z,99.99
2018-08-17T05:29:15.314Z,99.99
2018-08-17T05:30:15.307Z,99.99
2018-08-17T05:31:15.300Z,99.99
2018-08-17T05:32:15.293Z,99.99
2018-08-17T05:33:15.287Z,99.99
2018-08-17T05:34:15.282Z,99.99
2018-08-17T05:35:15.274Z,99.99
2018-08-17T05:36:15.270Z,99.99
2018-08-17T05:37:15.261Z,99.99
2018-08-17T05:38:15.255Z,99.99
2018-08-17T05:39:15.252Z,99.99
2018-08-17T05:40:15.243Z,99.99
2018-08-17T05:41:15.236Z,99.99
2018-08-17T05:42:15.230Z,99.99
2018-08-17T05:43:15.224Z,99.99
2018-08-17T05:44:15.217Z,99.99
2018-08-17T05:45:15.211Z,99.99
2018-08-17T05:46:15.205Z,99.99
2018-08-17T05:47:15.201Z,99.99
2018-08-17T05:48:15.192Z,99.99
2018-08-17T05:49:15.187Z,99.99
2018-08-17T05:50:15.182Z,99.99
2018-08-17T05:51:15.173Z,99.99
2018-08-17T05:52:15.168Z,99.99
2018-08-17T05:53:15.161Z,99.99
2018-08-17T05:54:15.155Z,99.99
2018-08-17T05:55:15.149Z,99.99
2018-08-17T05:56:15.143Z,99.99
2018-08-17T05:57:15.138Z,99.99
2018-08-17T05:58:15.132Z,99.99
2018-08-17T05:59:15.125Z,99.99
2018-08-17T06:00:15.120Z,99.99
2018-08-17T06:01:15.114Z,99.99
2018-08-17T06:02:15.108Z,99.99
2018-08-17T06:03:15.105Z,99.99
2018-08-17T06:04:15.096Z,99.99
2018-08-17T06:05:15.090Z,99.99
2018-08-17T06:06:15.087Z,99.99
2018-08-17T06:07:15.078Z,99.99
2018-08-17T06:08:15.073Z,99.99
2018-08-17T06:09:15.068Z,99.99
2018-08-17T06:10:15.067Z,99.99
2018-08-17T06:11:15.225Z,99.99
2018-08-17T06:12:15.050Z,99.99
2018-08-17T06:13:15.044Z,99.99
2018-08-17T06:14:15.039Z,99.99
2018-08-17T06:15:15.033Z,99.99
2018-08-17T06:16:15.027Z,99.99
2018-08-17T06:17:15.022Z,99.99
2018-08-17T06:18:15.017Z,99.99
2018-08-17T06:19:15.068Z,99.99
2018-08-17T06:20:15.005Z,99.99
2018-08-17T06:21:15.000Z,99.99
2018-08-17T06:22:14.995Z,99.99
2018-08-17T06:23:14.988Z,99.99
2018-08-17T06:24:14.983Z,99.99
2018-08-17T06:25:14.977Z,99.99
2018-08-17T06:26:14.975Z,99.99
2018-08-17T06:27:14.965Z,99.99
2018-08-17T06:28:14.960Z,99.99
2018-08-17T06:29:14.955Z,99.99
2018-08-17T06:30:14.949Z,99.99
2018-08-17T06:31:14.941Z,99.99
2018-08-17T06:32:14.936Z,99.99
2018-08-17T06:33:14.929Z,99.99
2018-08-17T06:34:14.924Z,99.99
2018-08-17T06:35:14.917Z,99.99
2018-08-17T06:36:15.042Z,99.99
2018-08-17T06:37:14.959Z,99.99
2018-08-17T06:38:14.901Z,99.99
2018-08-17T06:39:14.894Z,99.99
2018-08-17T06:40:14.888Z,99.99
2018-08-17T06:41:14.885Z,99.99
2018-08-17T06:42:14.881Z,99.99
2018-08-17T06:43:14.871Z,99.99
2018-08-17T06:44:14.865Z,99.99
2018-08-17T06:45:14.860Z,99.99
2018-08-17T06:46:14.854Z,99.99
2018-08-17T06:47:14.848Z,99.99
2018-08-17T06:48:14.842Z,99.99
2018-08-17T06:49:14.837Z,99.99
2018-08-17T06:50:14.832Z,99.99
2018-08-17T06:51:14.826Z,99.99
2018-08-17T06:52:14.820Z,99.99
2018-08-17T06:53:14.814Z,99.99
2018-08-17T06:54:14.811Z,99.99
2018-08-17T06:55:14.806Z,99.99
2018-08-17T06:56:14.797Z,99.99
2018-08-17T06:57:14.867Z,99.99
2018-08-17T06:58:14.786Z,99.99
2018-08-17T06:59:14.780Z,99.99
2018-08-17T07:00:14.774Z,99.99
2018-08-17T07:01:14.769Z,99.99
2018-08-17T07:02:14.764Z,99.99
2018-08-17T07:03:14.758Z,99.99
2018-08-17T07:04:14.753Z,99.99
2018-08-17T07:05:14.749Z,99.99
2018-08-17T07:06:14.743Z,99.99
2018-08-17T07:07:14.742Z,99.99
2018-08-17T07:08:14.733Z,99.99
2018-08-17T07:09:14.844Z,99.99
2018-08-17T07:10:14.724Z,99.99
2018-08-17T07:11:14.721Z,99.99
2018-08-17T07:12:14.713Z,99.99
2018-08-17T07:13:14.709Z,99.99
2018-08-17T07:14:14.706Z,99.99
2018-08-17T07:15:14.699Z,99.99
2018-08-17T07:16:14.695Z,99.99
2018-08-17T07:17:14.691Z,99.99
2018-08-17T07:18:14.691Z,99.99
2018-08-17T07:19:14.682Z,99.99
2018-08-17T07:20:14.677Z,99.99
2018-08-17T07:21:14.674Z,99.99
2018-08-17T07:22:14.669Z,99.99
2018-08-17T07:23:14.665Z,99.99
2018-08-17T07:24:14.661Z,99.99
2018-08-17T07:25:14.657Z,99.99
2018-08-17T07:26:14.652Z,99.99
2018-08-17T07:27:14.648Z,99.99
2018-08-17T07:28:14.684Z,99.99
2018-08-17T07:29:14.639Z,99.99
2018-08-17T07:30:14.640Z,99.99
2018-08-17T07:31:14.631Z,99.99
2018-08-17T07:32:14.628Z,99.99
2018-08-17T07:33:14.625Z,99.99
2018-08-17T07:34:14.619Z,99.99
2018-08-17T07:35:14.613Z,99.99
2018-08-17T07:36:14.910Z,99.99
2018-08-17T07:37:14.606Z,99.99
2018-08-17T07:38:14.603Z,99.99
2018-08-17T07:39:14.598Z,99.99
2018-08-17T07:40:14.593Z,99.99
2018-08-17T07:41:14.591Z,99.99
2018-08-17T07:42:14.586Z,99.99
2018-08-17T07:43:14.581Z,99.99
2018-08-17T07:44:14.576Z,99.99
2018-08-17T07:45:14.573Z,99.99
2018-08-17T07:46:14.569Z,99.99
2018-08-17T07:47:14.609Z,99.99
2018-08-17T07:48:14.672Z,99.99
2018-08-17T07:49:14.557Z,99.99
2018-08-17T07:50:14.552Z,99.99
2018-08-17T07:51:14.547Z,99.99
2018-08-17T07:52:14.546Z,99.99
2018-08-17T07:53:14.540Z,99.99
2018-08-17T07:54:14.536Z,99.99
2018-08-17T07:55:14.530Z,99.99
2018-08-17T07:56:14.527Z,99.99
2018-08-17T07:57:14.523Z,99.99
2018-08-17T07:58:14.525Z,99.99
2018-08-17T07:59:14.514Z,99.99
2018-08-17T08:00:14.510Z,99.99
2018-08-17T08:01:14.506Z,99.99
2018-08-17T08:02:14.502Z,99.99
2018-08-17T08:03:14.497Z,99.99
2018-08-17T08:04:14.494Z,99.99
2018-08-17T08:05:14.489Z,99.99
2018-08-17T08:06:14.485Z,99.99
2018-08-17T08:07:14.480Z,99.99
2018-08-17T08:08:14.475Z,99.99
2018-08-17T08:09:14.471Z,99.99
2018-08-17T08:10:14.467Z,99.99
2018-08-17T08:11:14.542Z,99.99
2018-08-17T08:12:14.457Z,99.99
2018-08-17T08:13:14.452Z,99.99
2018-08-17T08:14:14.477Z,99.99
2018-08-17T08:15:14.443Z,99.99
2018-08-17T08:16:14.438Z,99.99
2018-08-17T08:17:14.432Z,99.99
2018-08-17T08:18:14.428Z,99.99
2018-08-17T08:19:14.422Z,99.99
2018-08-17T08:20:14.454Z,99.99
2018-08-17T08:21:14.412Z,99.99
2018-08-17T08:22:14.407Z,99.99
2018-08-17T08:23:14.401Z,99.99
2018-08-17T08:24:14.397Z,99.99
2018-08-17T08:25:14.390Z,99.99
2018-08-17T08:26:14.385Z,99.99
2018-08-17T08:27:14.379Z,99.99
2018-08-17T08:28:14.374Z,99.99
2018-08-17T08:29:14.368Z,99.99
2018-08-17T08:30:14.363Z,99.99
2018-08-17T08:31:14.356Z,99.99
2018-08-17T08:32:14.351Z,99.99
2018-08-17T08:33:14.348Z,99.99
2018-08-17T08:34:14.346Z,99.99
2018-08-17T08:35:14.333Z,99.99
2018-08-17T08:36:14.327Z,99.99
2018-08-17T08:37:14.322Z,99.99
2018-08-17T08:38:14.316Z,99.99
2018-08-17T08:39:14.312Z,99.99
2018-08-17T08:40:14.303Z,99.99
2018-08-17T08:41:14.298Z,99.99
2018-08-17T08:42:14.292Z,99.99
2018-08-17T08:43:14.285Z,99.99
2018-08-17T08:44:14.280Z,99.99
2018-08-17T08:45:14.274Z,99.99
2018-08-17T08:46:14.269Z,99.99
2018-08-17T08:47:14.262Z,99.99
2018-08-17T08:48:14.257Z,99.99
2018-08-17T08:49:14.251Z,99.99
2018-08-17T08:50:14.245Z,99.99
2018-08-17T08:51:14.239Z,99.99
2018-08-17T08:52:14.233Z,99.99
2018-08-17T08:53:14.228Z,99.99
2018-08-17T08:54:14.226Z,99.99
2018-08-17T08:55:14.217Z,99.99
2018-08-17T08:56:14.211Z,99.99
2018-08-17T08:57:14.208Z,99.99
2018-08-17T08:58:14.200Z,99.99
2018-08-17T08:59:14.195Z,99.99
2018-08-17T09:00:14.190Z,99.99
2018-08-17T09:01:14.185Z,99.99
2018-08-17T09:02:14.180Z,99.99
2018-08-17T09:03:14.174Z,99.99
2018-08-17T09:04:14.169Z,99.99
2018-08-17T09:05:14.164Z,99.99
2018-08-17T09:06:14.160Z,99.99
2018-08-17T09:07:14.154Z,99.99
2018-08-17T09:08:14.216Z,99.99
2018-08-17T09:09:14.146Z,99.99
2018-08-17T09:10:14.142Z,99.99
2018-08-17T09:11:14.137Z,99.99
2018-08-17T09:12:14.131Z,99.99
2018-08-17T09:13:14.127Z,99.99
2018-08-17T09:14:14.122Z,99.99
2018-08-17T09:15:14.117Z,99.99
2018-08-17T09:16:14.113Z,99.99
2018-08-17T09:17:14.109Z,99.99
2018-08-17T09:18:14.106Z,99.99
2018-08-17T09:19:14.099Z,99.99
2018-08-17T09:20:14.137Z,99.99
2018-08-17T09:21:14.091Z,99.99
2018-08-17T09:22:14.087Z,99.99
2018-08-17T09:23:14.081Z,99.99
2018-08-17T09:24:14.077Z,99.99
2018-08-17T09:25:14.072Z,99.99
2018-08-17T09:26:14.068Z,99.99
2018-08-17T09:27:14.068Z,99.99
2018-08-17T09:28:14.059Z,99.99
2018-08-17T09:29:14.139Z,99.99
2018-08-17T09:30:14.094Z,99.99
2018-08-17T09:31:14.045Z,99.99
2018-08-17T09:32:14.043Z,99.99
2018-08-17T09:33:14.036Z,99.99
2018-08-17T09:34:14.032Z,99.99
2018-08-17T09:35:14.026Z,99.99
2018-08-17T09:36:14.023Z,99.99
2018-08-17T09:37:14.017Z,99.99
2018-08-17T09:38:14.013Z,99.99
2018-08-17T09:39:14.008Z,99.99
2018-08-17T09:40:14.003Z,99.99
2018-08-17T09:41:13.998Z,99.99
2018-08-17T09:42:13.994Z,99.99
2018-08-17T09:43:13.988Z,99.99
2018-08-17T09:44:13.984Z,99.99
2018-08-17T09:45:13.979Z,99.99
2018-08-17T09:46:13.974Z,99.99
2018-08-17T09:47:13.968Z,99.99
2018-08-17T09:48:13.967Z,99.99
2018-08-17T09:49:13.960Z,99.99
2018-08-17T09:50:13.954Z,99.99
2018-08-17T09:51:13.959Z,99.99
2018-08-17T09:52:13.946Z,99.99
2018-08-17T09:53:13.941Z,99.99
2018-08-17T09:54:13.939Z,99.99
2018-08-17T09:55:13.932Z,99.99
2018-08-17T09:56:13.929Z,99.99
2018-08-17T09:57:13.925Z,99.99
2018-08-17T09:58:13.921Z,99.99
2018-08-17T09:59:13.917Z,99.99
2018-08-17T10:00:13.913Z,99.99
2018-08-17T10:01:13.910Z,99.99
2018-08-17T10:02:13.907Z,99.99
2018-08-17T10:03:13.906Z,99.99
2018-08-17T10:04:13.955Z,99.99
2018-08-17T10:05:13.895Z,99.99
2018-08-17T10:06:13.892Z,99.99
2018-08-17T10:07:13.887Z,99.99
2018-08-17T10:08:13.884Z,99.99
2018-08-17T10:09:13.880Z,99.99
2018-08-17T10:10:13.878Z,99.99
2018-08-17T10:11:13.873Z,99.99
2018-08-17T10:12:13.870Z,99.99
2018-08-17T10:13:13.866Z,99.99
2018-08-17T10:14:13.863Z,99.99
2018-08-17T10:15:13.859Z,99.99
2018-08-17T10:16:13.856Z,99.99
2018-08-17T10:17:13.853Z,99.99
2018-08-17T10:18:13.850Z,99.99
2018-08-17T10:19:13.847Z,99.99
2018-08-17T10:20:13.841Z,99.99
2018-08-17T10:21:14.235Z,99.99
2018-08-17T10:22:13.835Z,99.99
2018-08-17T10:23:13.830Z,99.99
2018-08-17T10:24:13.826Z,99.99
2018-08-17T10:25:13.823Z,99.99
2018-08-17T10:26:13.819Z,99.99
2018-08-17T10:27:13.814Z,99.99
2018-08-17T10:28:13.810Z,99.99
2018-08-17T10:29:13.806Z,99.99
2018-08-17T10:30:13.803Z,99.99
2018-08-17T10:31:13.798Z,99.99
2018-08-17T10:32:13.794Z,99.99
2018-08-17T10:33:13.794Z,99.99
2018-08-17T10:34:13.787Z,99.99
2018-08-17T10:35:13.782Z,99.99
2018-08-17T10:36:13.778Z,99.99
2018-08-17T10:37:13.776Z,99.99
2018-08-17T10:38:13.771Z,99.99
2018-08-17T10:39:13.765Z,99.99
2018-08-17T10:40:13.762Z,99.99
2018-08-17T10:41:13.758Z,99.99
2018-08-17T10:42:13.754Z,99.99
2018-08-17T10:43:13.749Z,99.99
2018-08-17T10:44:13.745Z,99.99
2018-08-17T10:45:13.741Z,99.99
2018-08-17T10:46:13.738Z,99.99
2018-08-17T10:47:13.733Z,99.99
2018-08-17T10:48:13.733Z,99.99
2018-08-17T10:49:13.784Z,99.99
2018-08-17T10:50:13.723Z,99.99
2018-08-17T10:51:13.718Z,99.99
2018-08-17T10:52:13.715Z,99.99
2018-08-17T10:53:13.711Z,99.99
2018-08-17T10:54:13.708Z,99.99
2018-08-17T10:55:13.704Z,99.99
2018-08-17T10:56:13.701Z,99.99
2018-08-17T10:57:13.698Z,99.99
2018-08-17T10:58:13.694Z,99.99
2018-08-17T10:59:13.692Z,99.99
2018-08-17T11:00:13.686Z,99.99
2018-08-17T11:01:13.684Z,99.99
2018-08-17T11:02:13.681Z,99.99
2018-08-17T11:03:13.677Z,99.99
2018-08-17T11:04:13.674Z,99.99
2018-08-17T11:05:13.671Z,99.99
2018-08-17T11:06:13.668Z,99.99
2018-08-17T11:07:13.664Z,99.99
2018-08-17T11:08:13.665Z,99.99
2018-08-17T11:09:13.658Z,99.99
2018-08-17T11:10:13.655Z,99.99
2018-08-17T11:11:13.651Z,99.99
2018-08-17T11:12:13.648Z,99.99
2018-08-17T11:13:13.648Z,99.99
2018-08-17T11:14:13.642Z,99.99
2018-08-17T11:15:13.641Z,99.99
2018-08-17T11:16:13.635Z,99.99
2018-08-17T11:17:13.633Z,99.99
2018-08-17T11:18:13.628Z,99.99
2018-08-17T11:19:13.624Z,99.99
2018-08-17T11:20:13.622Z,99.99
2018-08-17T11:21:13.620Z,99.99
2018-08-17T11:22:13.617Z,99.99
2018-08-17T11:23:13.614Z,99.99
2018-08-17T11:24:13.612Z,99.99
2018-08-17T11:25:13.616Z,99.99
2018-08-17T11:26:13.610Z,99.99
2018-08-17T11:27:13.608Z,99.99
2018-08-17T11:28:13.608Z,99.99
2018-08-17T11:29:13.608Z,99.99
2018-08-17T11:30:13.609Z,99.99
2018-08-17T11:31:13.609Z,99.99
2018-08-17T11:32:13.611Z,99.99
2018-08-17T11:33:13.612Z,99.99
2018-08-17T11:34:13.632Z,99.99
2018-08-17T11:35:13.615Z,99.99
2018-08-17T11:36:13.617Z,99.99
2018-08-17T11:37:13.619Z,99.99
2018-08-17T11:38:13.621Z,99.99
2018-08-17T11:39:13.621Z,99.99
2018-08-17T11:40:13.623Z,99.99
2018-08-17T11:41:13.627Z,99.99
2018-08-17T11:42:13.626Z,99.99
2018-08-17T11:43:13.626Z,99.99
2018-08-17T11:44:13.627Z,99.99
2018-08-17T11:45:13.628Z,99.99
2018-08-17T11:46:13.629Z,99.99
2018-08-17T11:47:13.628Z,99.99
2018-08-17T11:48:13.629Z,99.99
2018-08-17T11:49:13.629Z,99.99
2018-08-17T11:50:13.634Z,99.99
2018-08-17T11:51:13.630Z,99.99
2018-08-17T11:52:13.634Z,99.99
2018-08-17T11:53:13.633Z,99.99
2018-08-17T11:54:13.633Z,99.99
2018-08-17T11:55:13.634Z,99.99
2018-08-17T11:56:13.633Z,99.99
2018-08-17T11:57:13.633Z,99.99
2018-08-17T11:58:13.633Z,99.99
2018-08-17T11:59:13.633Z,99.99
2018-08-17T12:00:13.633Z,99.99
2018-08-17T12:01:13.691Z,99.99
2018-08-17T12:02:13.635Z,99.99
2018-08-17T12:03:13.633Z,99.99
2018-08-17T12:04:13.633Z,99.99
2018-08-17T12:05:13.633Z,99.99
2018-08-17T12:06:13.634Z,99.99
2018-08-17T12:07:13.636Z,99.99
2018-08-17T12:08:13.711Z,99.99
2018-08-17T12:09:13.638Z,99.99
2018-08-17T12:10:13.636Z,99.99
2018-08-17T12:11:13.636Z,99.99
2018-08-17T12:12:13.638Z,95.65
2018-08-17T12:13:13.639Z,96.22
2018-08-17T12:14:13.641Z,97.96
2018-08-17T12:15:13.640Z,97.42
2018-08-17T12:16:13.644Z,99.16
2018-08-17T12:17:13.643Z,97.52
2018-08-17T12:18:13.644Z,99.78
2018-08-17T12:19:13.644Z,99.99
2018-08-17T12:20:13.646Z,96.03
2018-08-17T12:21:13.646Z,98.05
2018-08-17T12:22:13.648Z,94.59
2018-08-17T12:23:13.649Z,93.29
2018-08-17T12:24:13.701Z,96.94
2018-08-17T12:25:13.653Z,94.39
2018-08-17T12:26:13.655Z,94.49
2018-08-17T12:27:13.656Z,94.49
2018-08-17T12:28:13.659Z,93.38
2018-08-17T12:29:13.662Z,91.16
2018-08-17T12:30:13.666Z,88.27
2018-08-17T12:31:13.666Z,88.56
2018-08-17T12:32:13.815Z,89.81
2018-08-17T12:33:13.671Z,90.20
2018-08-17T12:34:13.674Z,90.88
2018-08-17T12:35:13.675Z,89.86
2018-08-17T12:36:13.680Z,91.11
2018-08-17T12:37:13.685Z,91.44
2018-08-17T12:38:13.685Z,87.92
2018-08-17T12:39:13.687Z,86.28
2018-08-17T12:40:13.800Z,83.67
2018-08-17T12:41:13.695Z,85.06
2018-08-17T12:42:13.700Z,82.13
2018-08-17T12:43:13.702Z,84.16
2018-08-17T12:44:13.707Z,87.77
2018-08-17T12:45:13.711Z,86.03
2018-08-17T12:46:13.715Z,86.80
2018-08-17T12:47:13.719Z,80.43
2018-08-17T12:48:13.723Z,78.46
2018-08-17T12:49:13.728Z,83.19
2018-08-17T12:50:13.732Z,81.68
2018-08-17T12:51:13.736Z,79.81
2018-08-17T12:52:13.787Z,78.79